createdAt,value
2023-02-22T00:02:11.176Z,111.70
2023-02-22T00:04:41.970Z,115.00
2023-02-22T00:07:09.137Z,107.75
2023-02-22T00:09:36.150Z,121.30
2023-02-22T00:12:03.323Z,118.25
2023-02-22T00:14:30.296Z,122.57
2023-02-22T00:16:59.918Z,129.98
2023-02-22T00:19:31.061Z,141.05
2023-02-22T00:21:58.487Z,141.55
2023-02-22T00:24:25.977Z,147.20
2023-02-22T00:26:55.718Z,139.73
2023-02-22T00:29:24.622Z,155.50
2023-02-22T00:31:51.801Z,167.15
2023-02-22T00:34:18.893Z,164.57
2023-02-22T00:36:49.651Z,174.05
2023-02-22T00:39:17.020Z,174.90
2023-02-22T00:41:44.400Z,174.30
2023-02-22T00:44:12.083Z,176.45
2023-02-22T00:46:40.378Z,177.18
2023-02-22T00:49:08.007Z,187.10
2023-02-22T00:51:36.050Z,187.85
2023-02-22T00:54:03.253Z,190.50
2023-02-22T00:56:30.347Z,190.32
2023-02-22T00:58:57.375Z,196.77
2023-02-22T01:01:24.551Z,187.20
2023-02-22T01:03:52.245Z,195.90
2023-02-22T01:06:20.119Z,199.80
2023-02-22T01:08:48.092Z,192.07
2023-02-22T01:11:17.533Z,194.57
2023-02-22T01:13:45.955Z,197.88
2023-02-22T01:16:13.265Z,196.30
2023-02-22T01:18:40.593Z,201.95
2023-02-22T01:21:09.159Z,191.82
2023-02-22T01:23:39.545Z,198.65
2023-02-22T01:26:07.055Z,190.43
2023-02-22T01:28:34.622Z,195.88
2023-02-22T01:31:03.202Z,197.30
2023-02-22T01:33:31.117Z,191.75
2023-02-22T01:36:00.216Z,189.82
2023-02-22T01:38:28.864Z,188.32
2023-02-22T01:40:56.510Z,187.23
2023-02-22T01:43:31.242Z,186.75
2023-02-22T01:46:06.516Z,194.52
2023-02-22T01:48:46.481Z,198.85
2023-02-22T01:51:19.743Z,200.20
2023-02-22T01:53:54.054Z,192.23
2023-02-22T01:59:01.735Z,193.50
2023-02-22T02:01:30.434Z,194.57
2023-02-22T02:04:00.532Z,193.80
2023-02-22T02:06:32.454Z,186.93
2023-02-22T02:09:19.117Z,205.85
2023-02-22T02:11:47.018Z,195.73
2023-02-22T02:14:14.557Z,198.73
2023-02-22T02:16:50.936Z,188.73
2023-02-22T02:19:41.044Z,195.23
2023-02-22T02:22:17.255Z,187.20
2023-02-22T02:25:18.216Z,208.05
2023-02-22T02:28:10.301Z,212.32
2023-02-22T02:31:02.579Z,188.23
2023-02-22T02:33:59.824Z,188.20
2023-02-22T02:36:55.098Z,192.82
2023-02-22T02:39:36.101Z,205.88
2023-02-22T02:42:10.081Z,203.38
2023-02-22T02:44:52.474Z,196.32
2023-02-22T02:47:30.990Z,200.48
2023-02-22T02:50:10.956Z,187.82
2023-02-22T02:52:41.027Z,196.23
2023-02-22T02:55:11.403Z,206.00
2023-02-22T02:57:42.281Z,198.95
2023-02-22T03:00:22.635Z,208.40
2023-02-22T03:03:26.183Z,205.15
2023-02-22T03:06:27.238Z,210.05
2023-02-22T03:09:16.778Z,209.65
2023-02-22T03:12:30.277Z,206.90
2023-02-22T03:15:08.040Z,200.35
2023-02-22T03:18:04.505Z,194.18
2023-02-22T03:20:55.893Z,194.85
2023-02-22T03:24:02.436Z,201.75
2023-02-22T03:26:58.747Z,201.18
2023-02-22T03:29:28.901Z,215.50
2023-02-22T03:32:01.708Z,203.00
2023-02-22T03:34:48.042Z,201.68
2023-02-22T03:37:22.086Z,211.32
2023-02-22T03:39:54.730Z,202.95
2023-02-22T03:42:29.869Z,212.70
2023-02-22T03:45:00.705Z,203.75
2023-02-22T03:47:42.780Z,203.18
2023-02-22T03:50:25.394Z,213.38
2023-02-22T03:52:53.670Z,208.18
2023-02-22T03:55:29.448Z,203.55
2023-02-22T03:58:07.237Z,206.70
2023-02-22T04:00:35.867Z,188.93
2023-02-22T04:03:04.611Z,207.10
2023-02-22T04:05:32.459Z,207.60
2023-02-22T04:07:59.865Z,209.20
2023-02-22T04:10:28.055Z,207.02
2023-02-22T04:12:55.109Z,200.32
2023-02-22T04:15:24.827Z,211.20
2023-02-22T04:17:58.213Z,210.23
2023-02-22T04:20:25.713Z,209.70
2023-02-22T04:22:58.415Z,210.38
2023-02-22T04:25:25.445Z,208.25
2023-02-22T04:27:53.087Z,212.40
2023-02-22T04:30:30.268Z,203.85
2023-02-22T04:32:59.449Z,215.13
2023-02-22T04:35:26.573Z,206.23
2023-02-22T04:37:53.669Z,214.05
2023-02-22T04:40:20.947Z,217.10
2023-02-22T04:42:48.707Z,205.98
2023-02-22T04:45:16.225Z,223.63
2023-02-22T04:47:43.572Z,218.95
2023-02-22T04:50:12.895Z,210.48
2023-02-22T04:52:40.650Z,213.45
2023-02-22T04:55:08.492Z,204.77
2023-02-22T04:57:37.353Z,213.77
2023-02-22T05:00:06.915Z,209.85
2023-02-22T05:02:40.053Z,212.73
2023-02-22T05:05:07.976Z,219.65
2023-02-22T05:07:35.276Z,214.98
2023-02-22T05:10:03.026Z,219.88
2023-02-22T05:12:30.662Z,212.95
2023-02-22T05:14:57.698Z,214.82
2023-02-22T05:17:24.821Z,206.20
2023-02-22T05:19:51.924Z,216.90
2023-02-22T05:22:19.130Z,218.23
2023-02-22T05:24:46.224Z,220.63
2023-02-22T05:27:13.282Z,215.48
2023-02-22T05:29:40.728Z,220.27
2023-02-22T05:32:07.807Z,222.75
2023-02-22T05:34:34.897Z,211.32
2023-02-22T05:37:03.481Z,208.50
2023-02-22T05:39:32.009Z,216.95
2023-02-22T05:41:59.749Z,215.00
2023-02-22T05:44:28.033Z,222.93
2023-02-22T05:46:55.131Z,216.32
2023-02-22T05:49:22.232Z,220.82
2023-02-22T05:51:49.329Z,215.85
2023-02-22T05:54:16.722Z,223.38
2023-02-22T05:56:43.825Z,221.68
2023-02-22T05:59:10.871Z,230.85
2023-02-22T06:01:38.064Z,219.63
2023-02-22T06:04:05.253Z,233.73
2023-02-22T06:06:32.307Z,226.30
2023-02-22T06:08:59.392Z,220.50
2023-02-22T06:11:26.560Z,216.68
2023-02-22T06:13:54.424Z,234.05
2023-02-22T06:16:22.583Z,235.10
2023-02-22T06:18:50.520Z,233.40
2023-02-22T06:21:18.135Z,237.52
2023-02-22T06:23:45.561Z,221.10
2023-02-22T06:26:12.663Z,225.90
2023-02-22T06:28:39.706Z,228.15
2023-02-22T06:31:06.937Z,219.95
2023-02-22T06:33:34.022Z,223.85
2023-02-22T06:36:01.292Z,220.13
2023-02-22T06:38:28.867Z,208.70
2023-02-22T06:40:56.396Z,219.88
2023-02-22T06:43:27.664Z,215.35
2023-02-22T06:45:54.799Z,230.20
2023-02-22T06:48:22.094Z,219.13
2023-02-22T06:50:49.262Z,222.13
2023-02-22T06:53:16.403Z,222.35
2023-02-22T06:55:43.796Z,225.85
2023-02-22T06:58:11.399Z,220.20
2023-02-22T07:00:42.377Z,226.00
2023-02-22T07:03:12.522Z,228.48
2023-02-22T07:05:40.486Z,225.57
2023-02-22T07:08:08.068Z,239.02
2023-02-22T07:10:37.561Z,214.50
2023-02-22T07:13:06.630Z,219.30
2023-02-22T07:15:35.650Z,221.57
2023-02-22T07:18:03.029Z,210.45
2023-02-22T07:20:32.296Z,218.77
2023-02-22T07:23:00.298Z,215.43
2023-02-22T07:25:27.727Z,219.18
2023-02-22T07:27:54.780Z,214.07
2023-02-22T07:30:31.319Z,226.15
2023-02-22T07:33:02.206Z,222.63
2023-02-22T07:35:32.505Z,221.00
2023-02-22T07:38:00.213Z,223.73
2023-02-22T07:40:28.761Z,230.13
2023-02-22T07:43:27.767Z,215.82
2023-02-22T07:46:02.833Z,203.77
2023-02-22T07:48:32.282Z,227.85
2023-02-22T07:50:59.875Z,210.48
2023-02-22T07:53:33.533Z,218.52
2023-02-22T07:56:05.214Z,210.30
2023-02-22T07:58:32.886Z,208.60
2023-02-22T08:01:02.327Z,213.15
2023-02-22T08:03:38.221Z,207.77
2023-02-22T08:06:07.529Z,218.20
2023-02-22T08:08:34.691Z,211.02
2023-02-22T08:11:02.443Z,223.13
2023-02-22T08:13:30.013Z,209.05
2023-02-22T08:15:57.321Z,207.48
2023-02-22T08:18:25.617Z,213.88
2023-02-22T08:20:54.071Z,214.75
2023-02-22T08:23:25.323Z,207.75
2023-02-22T08:25:53.168Z,208.40
2023-02-22T08:28:23.787Z,218.88
2023-02-22T08:30:51.874Z,214.30
2023-02-22T08:33:19.936Z,218.32
2023-02-22T08:35:49.794Z,210.02
2023-02-22T08:38:27.891Z,204.93
2023-02-22T08:40:55.362Z,204.38
2023-02-22T08:43:23.635Z,213.50
2023-02-22T08:45:52.138Z,198.95
2023-02-22T08:48:20.289Z,203.80
2023-02-22T08:50:47.379Z,211.20
2023-02-22T08:53:16.484Z,199.25
2023-02-22T08:55:45.094Z,197.48
2023-02-22T08:58:13.283Z,211.57
2023-02-22T09:00:43.466Z,207.73
2023-02-22T09:03:14.076Z,200.18
2023-02-22T09:05:43.834Z,216.45
2023-02-22T09:08:11.153Z,210.65
2023-02-22T09:10:38.418Z,214.55
2023-02-22T09:13:05.857Z,216.48
2023-02-22T09:15:37.833Z,207.65
2023-02-22T09:18:08.542Z,216.68
2023-02-22T09:20:36.676Z,203.43
2023-02-22T09:23:06.344Z,204.63
2023-02-22T09:25:36.309Z,212.77
2023-02-22T09:28:03.479Z,209.30
2023-02-22T09:30:35.986Z,205.65
2023-02-22T09:33:16.306Z,216.95
2023-02-22T09:35:46.691Z,206.32
2023-02-22T09:38:23.157Z,203.52
2023-02-22T09:41:14.427Z,203.07
2023-02-22T09:44:07.123Z,208.50
2023-02-22T09:46:42.103Z,205.82
2023-02-22T09:49:47.474Z,203.60
2023-02-22T09:52:23.834Z,216.85
2023-02-22T09:55:05.559Z,200.60
2023-02-22T09:57:43.593Z,202.90
2023-02-22T10:00:22.849Z,199.10
2023-02-22T10:03:17.724Z,195.80
2023-02-22T10:05:57.049Z,206.35
2023-02-22T10:08:31.483Z,198.38
2023-02-22T10:11:30.821Z,199.82
2023-02-22T10:14:31.052Z,202.38
2023-02-22T10:17:06.267Z,197.15
2023-02-22T10:19:57.715Z,196.15
2023-02-22T10:22:56.971Z,203.70
2023-02-22T10:25:28.108Z,202.18
2023-02-22T10:27:59.547Z,199.52
2023-02-22T10:30:26.541Z,201.18
2023-02-22T10:33:41.606Z,206.32
2023-02-22T10:36:23.031Z,202.65
2023-02-22T10:39:07.976Z,198.10
2023-02-22T10:41:42.965Z,208.13
2023-02-22T10:44:10.516Z,201.40
2023-02-22T10:46:40.352Z,212.52
2023-02-22T10:49:08.059Z,203.80
2023-02-22T10:51:35.717Z,195.18
2023-02-22T10:54:15.525Z,200.48
2023-02-22T10:56:52.349Z,192.73
2023-02-22T10:59:36.468Z,204.73
2023-02-22T11:02:15.876Z,203.30
2023-02-22T11:04:54.926Z,202.50
2023-02-22T11:07:31.041Z,198.82
2023-02-22T11:10:11.104Z,207.95
2023-02-22T11:12:43.771Z,197.27
2023-02-22T11:15:16.970Z,194.02
2023-02-22T11:17:47.233Z,195.80
2023-02-22T11:20:35.902Z,192.65
2023-02-22T11:23:05.135Z,193.55
2023-02-22T11:25:36.726Z,197.45
2023-02-22T11:28:08.282Z,194.02
2023-02-22T11:30:36.244Z,203.25
2023-02-22T11:33:16.950Z,201.20
2023-02-22T11:35:55.412Z,198.27
2023-02-22T11:38:30.877Z,197.68
2023-02-22T11:41:06.134Z,196.85
2023-02-22T11:43:33.657Z,202.95
2023-02-22T11:46:12.718Z,195.70
2023-02-22T11:48:54.572Z,203.80
2023-02-22T11:52:03.363Z,198.80
2023-02-22T11:54:53.181Z,191.38
2023-02-22T11:58:08.607Z,179.07
2023-02-22T12:04:26.038Z,190.48
2023-02-22T12:07:23.954Z,188.65
2023-02-22T12:10:21.465Z,197.07
2023-02-22T12:13:23.562Z,198.85
2023-02-22T12:16:40.418Z,198.57
2023-02-22T12:19:40.337Z,186.00
2023-02-22T12:22:23.017Z,197.00
2023-02-22T12:25:09.688Z,197.00
2023-02-22T12:27:53.090Z,192.65
2023-02-22T12:30:35.573Z,204.18
2023-02-22T12:33:15.842Z,191.13
2023-02-22T12:35:51.571Z,194.75
2023-02-22T12:38:44.927Z,194.68
2023-02-22T12:41:38.473Z,194.50
2023-02-22T12:44:39.596Z,184.10
2023-02-22T12:47:14.832Z,184.93
2023-02-22T12:49:59.429Z,193.98
2023-02-22T12:52:57.809Z,191.82
2023-02-22T12:55:31.711Z,190.07
2023-02-22T12:58:30.467Z,185.57
2023-02-22T13:01:22.321Z,189.45
2023-02-22T13:03:49.468Z,200.18
2023-02-22T13:06:27.905Z,187.48
2023-02-22T13:09:24.541Z,193.23
2023-02-22T13:12:09.716Z,191.07
2023-02-22T13:15:02.252Z,194.93
2023-02-22T13:18:01.491Z,197.75
2023-02-22T13:20:33.255Z,190.20
2023-02-22T13:23:29.803Z,196.90
2023-02-22T13:26:41.208Z,194.18
2023-02-22T13:29:19.753Z,195.95
2023-02-22T13:32:03.453Z,187.95
2023-02-22T13:34:48.547Z,190.53
2023-02-22T13:37:41.589Z,179.10
2023-02-22T13:40:36.627Z,185.30
2023-02-22T13:43:34.633Z,181.18
2023-02-22T13:46:20.258Z,190.70
2023-02-22T13:49:25.769Z,184.55
2023-02-22T13:51:59.117Z,176.57
2023-02-22T13:54:42.686Z,170.88
2023-02-22T13:57:34.246Z,162.27
2023-02-22T14:00:17.792Z,166.10
2023-02-22T14:03:08.283Z,170.65
2023-02-22T14:05:41.792Z,168.40
2023-02-22T14:08:31.754Z,174.43
2023-02-22T14:11:00.976Z,168.50
2023-02-22T14:13:30.654Z,167.27
2023-02-22T14:16:00.753Z,153.85
2023-02-22T14:18:31.653Z,163.00
2023-02-22T14:21:10.190Z,163.52
2023-02-22T14:23:48.848Z,152.88
2023-02-22T14:26:34.970Z,171.48
2023-02-22T14:29:17.111Z,161.43
2023-02-22T14:31:44.229Z,158.82
2023-02-22T14:34:17.556Z,160.30
2023-02-22T14:36:51.129Z,165.23
2023-02-22T14:39:32.223Z,163.50
2023-02-22T14:42:07.045Z,159.95
2023-02-22T14:44:56.635Z,157.43
2023-02-22T14:47:50.540Z,158.27
2023-02-22T14:50:30.146Z,161.37
2023-02-22T14:53:07.072Z,160.15
2023-02-22T14:55:43.085Z,146.00
2023-02-22T14:58:20.827Z,157.30
2023-02-22T15:00:53.181Z,161.32
2023-02-22T15:03:37.392Z,162.50
2023-02-22T15:06:20.352Z,161.70
2023-02-22T15:09:07.646Z,161.77
2023-02-22T15:11:35.638Z,154.85
2023-02-22T15:14:25.619Z,160.20
2023-02-22T15:16:57.030Z,158.77
2023-02-22T15:19:29.111Z,156.27
2023-02-22T15:21:59.346Z,155.20
2023-02-22T15:24:37.502Z,159.85
2023-02-22T15:27:19.622Z,151.80
2023-02-22T15:29:46.761Z,152.38
2023-02-22T15:32:32.164Z,148.10
2023-02-22T15:35:14.228Z,151.15
2023-02-22T15:37:41.353Z,157.82
2023-02-22T15:40:14.940Z,151.43
2023-02-22T15:42:47.852Z,157.88
2023-02-22T15:45:25.611Z,153.18
2023-02-22T15:47:56.244Z,155.27
2023-02-22T15:50:34.831Z,147.85
2023-02-22T15:53:08.888Z,160.57
2023-02-22T15:55:40.654Z,152.23
2023-02-22T15:58:25.428Z,155.77
2023-02-22T16:01:19.962Z,155.80
2023-02-22T16:04:00.670Z,157.30
2023-02-22T16:06:35.381Z,159.43
2023-02-22T16:09:09.688Z,159.43
2023-02-22T16:14:42.896Z,151.55
2023-02-22T16:17:31.110Z,156.02
2023-02-22T16:20:02.182Z,156.20
2023-02-22T16:22:36.078Z,148.95
2023-02-22T16:25:24.962Z,146.18
2023-02-22T16:27:55.824Z,157.15
2023-02-22T16:30:36.139Z,152.02
2023-02-22T16:33:16.587Z,157.98
2023-02-22T16:35:52.169Z,149.82
2023-02-22T16:38:21.230Z,149.90
2023-02-22T16:40:55.283Z,154.82
2023-02-22T16:45:57.342Z,147.85
2023-02-22T16:48:33.113Z,164.07
2023-02-22T16:51:07.765Z,149.43
2023-02-22T16:53:35.145Z,151.50
2023-02-22T16:56:09.237Z,157.77
2023-02-22T16:58:40.235Z,162.05
2023-02-22T17:01:07.854Z,155.10
2023-02-22T17:03:35.886Z,162.70
2023-02-22T17:06:03.157Z,162.77
2023-02-22T17:08:30.803Z,158.60
2023-02-22T17:11:00.788Z,149.68
2023-02-22T17:13:29.467Z,161.10
2023-02-22T17:15:57.599Z,153.82
2023-02-22T17:18:28.951Z,165.40
2023-02-22T17:20:56.960Z,167.20
2023-02-22T17:23:24.360Z,161.27
2023-02-22T17:25:59.257Z,169.00
2023-02-22T17:28:26.830Z,161.80
2023-02-22T17:30:59.112Z,165.15
2023-02-22T17:33:27.866Z,152.85
2023-02-22T17:35:58.003Z,157.07
2023-02-22T17:38:29.073Z,165.27
2023-02-22T17:41:01.410Z,154.70
2023-02-22T17:43:29.380Z,164.25
2023-02-22T17:45:57.223Z,167.13
2023-02-22T17:48:25.033Z,169.95
2023-02-22T17:50:53.060Z,161.40
2023-02-22T17:53:25.022Z,161.45
2023-02-22T17:55:52.635Z,168.55
2023-02-22T17:58:22.431Z,170.00
2023-02-22T18:00:51.505Z,164.20
2023-02-22T18:03:25.934Z,165.20
2023-02-22T18:05:59.786Z,158.73
2023-02-22T18:08:29.951Z,161.82
2023-02-22T18:10:57.173Z,160.27
2023-02-22T18:13:27.218Z,168.43
2023-02-22T18:16:00.157Z,172.63
2023-02-22T18:18:28.074Z,172.85
2023-02-22T18:20:59.951Z,174.85
2023-02-22T18:23:30.584Z,170.88
2023-02-22T18:26:23.023Z,161.10
2023-02-22T18:28:50.368Z,164.88
2023-02-22T18:31:20.345Z,175.48
2023-02-22T18:33:50.922Z,166.95
2023-02-22T18:36:25.410Z,164.40
2023-02-22T18:38:55.221Z,161.98
2023-02-22T18:41:27.004Z,165.93
2023-02-22T18:43:55.721Z,170.15
2023-02-22T18:46:24.731Z,184.27
2023-02-22T18:48:55.247Z,177.70
2023-02-22T18:51:23.805Z,182.52
2023-02-22T18:53:54.959Z,176.05
2023-02-22T18:56:22.463Z,173.93
2023-02-22T18:59:02.451Z,172.98
2023-02-22T19:01:31.445Z,184.88
2023-02-22T19:04:00.181Z,176.50
2023-02-22T19:06:27.415Z,186.25
2023-02-22T19:08:54.589Z,176.63
2023-02-22T19:11:24.245Z,174.30
2023-02-22T19:13:56.045Z,170.27
2023-02-22T19:16:25.661Z,172.35
2023-02-22T19:18:57.557Z,181.43
2023-02-22T19:21:27.651Z,175.05
2023-02-22T19:24:01.357Z,171.82
2023-02-22T19:26:29.548Z,167.82
2023-02-22T19:28:59.606Z,169.82
2023-02-22T19:31:31.546Z,169.85
2023-02-22T19:34:05.166Z,175.93
2023-02-22T19:36:32.724Z,180.53
2023-02-22T19:39:03.023Z,171.70
2023-02-22T19:41:31.570Z,181.68
2023-02-22T19:43:59.313Z,194.60
2023-02-22T19:46:26.771Z,183.77
2023-02-22T19:48:57.520Z,187.18
2023-02-22T19:51:27.991Z,177.68
2023-02-22T19:54:02.624Z,187.32
2023-02-22T19:56:31.447Z,181.48
2023-02-22T19:59:09.505Z,177.65
2023-02-22T20:01:37.649Z,175.52
2023-02-22T20:04:17.826Z,174.20
2023-02-22T20:06:46.437Z,172.25
2023-02-22T20:09:23.803Z,170.18
2023-02-22T20:11:54.374Z,174.18
2023-02-22T20:14:25.326Z,174.18
2023-02-22T20:16:55.883Z,175.52
2023-02-22T20:19:24.405Z,168.32
2023-02-22T20:21:55.851Z,169.70
2023-02-22T20:24:25.212Z,156.10
2023-02-22T20:26:55.870Z,170.98
2023-02-22T20:29:29.629Z,160.20
2023-02-22T20:31:59.631Z,167.75
2023-02-22T20:34:30.501Z,160.50
2023-02-22T20:36:57.650Z,159.25
2023-02-22T20:39:24.797Z,177.88
2023-02-22T20:41:52.708Z,174.45
2023-02-22T20:44:19.978Z,167.98
2023-02-22T20:46:48.176Z,158.38
2023-02-22T20:49:19.062Z,173.77
2023-02-22T20:51:48.180Z,174.35
2023-02-22T20:54:16.639Z,162.75
2023-02-22T20:56:45.769Z,167.93
2023-02-22T20:59:16.257Z,175.88
2023-02-22T21:01:43.940Z,174.38
2023-02-22T21:04:12.089Z,182.35
2023-02-22T21:06:41.293Z,183.30
2023-02-22T21:09:15.141Z,176.88
2023-02-22T21:11:42.932Z,177.02
2023-02-22T21:14:18.632Z,176.27
2023-02-22T21:16:49.116Z,186.10
2023-02-22T21:19:26.590Z,172.15
2023-02-22T21:21:56.255Z,176.48
2023-02-22T21:24:26.194Z,172.52
2023-02-22T21:26:53.833Z,174.80
2023-02-22T21:29:25.377Z,170.90
2023-02-22T21:31:56.594Z,175.77
2023-02-22T21:34:25.940Z,183.13
2023-02-22T21:36:53.376Z,197.13
2023-02-22T21:39:20.882Z,197.63
2023-02-22T21:41:51.438Z,178.70
2023-02-22T21:44:19.411Z,181.25
2023-02-22T21:46:49.680Z,192.90
2023-02-22T21:49:17.520Z,189.63
2023-02-22T21:51:45.003Z,187.80
2023-02-22T21:54:13.228Z,181.38
2023-02-22T21:56:43.283Z,182.50
2023-02-22T21:59:14.323Z,182.93
2023-02-22T22:01:56.098Z,184.65
2023-02-22T22:04:28.662Z,189.85
2023-02-22T22:07:01.418Z,187.52
2023-02-22T22:09:33.054Z,198.57
2023-02-22T22:12:05.611Z,191.00
2023-02-22T22:14:35.133Z,184.23
2023-02-22T22:17:05.721Z,196.25
2023-02-22T22:19:40.607Z,186.85
2023-02-22T22:22:08.032Z,206.52
2023-02-22T22:24:35.278Z,196.13
2023-02-22T22:27:06.193Z,196.15
2023-02-22T22:29:34.892Z,193.75
2023-02-22T22:32:03.347Z,198.00
2023-02-22T22:34:34.540Z,191.68
2023-02-22T22:37:01.714Z,199.77
2023-02-22T22:39:30.123Z,187.15
2023-02-22T22:41:57.103Z,199.13
2023-02-22T22:44:24.238Z,193.63
2023-02-22T22:46:54.786Z,187.63
2023-02-22T22:49:23.718Z,185.85
2023-02-22T22:51:51.307Z,192.82
2023-02-22T22:54:18.496Z,189.40
2023-02-22T22:56:46.534Z,186.65
2023-02-22T22:59:14.016Z,185.90
2023-02-22T23:01:44.718Z,197.27
2023-02-22T23:04:18.675Z,199.38
2023-02-22T23:06:52.089Z,196.15
2023-02-22T23:09:35.048Z,202.68
2023-02-22T23:12:09.331Z,192.63
2023-02-22T23:17:16.043Z,191.68
2023-02-22T23:19:45.019Z,181.23
2023-02-22T23:22:15.486Z,192.35
2023-02-22T23:24:44.598Z,186.25
2023-02-22T23:27:12.347Z,173.20
2023-02-22T23:29:41.800Z,182.88
2023-02-22T23:32:10.242Z,176.63
2023-02-22T23:34:41.146Z,187.18
2023-02-22T23:37:10.758Z,180.15
2023-02-22T23:39:38.724Z,174.38
2023-02-22T23:42:08.822Z,176.00
2023-02-22T23:44:36.111Z,179.75
2023-02-22T23:47:03.908Z,188.38
2023-02-22T23:49:35.944Z,174.55
2023-02-22T23:52:08.138Z,200.85
2023-02-22T23:54:44.042Z,204.65
2023-02-22T23:57:11.788Z,191.60
2023-02-22T23:59:40.538Z,207.95
